Terminal Aerodrome Forecast
Issued by NWS

Home | Current Version | Previous Version | Text Only | Print | Product List | Glossary On
Versions: 1 2 3 4 5 6 7 8 9 10 11 12 13 14 15 16
000
FTUS41 KCAR 281731
TAFPQI
TAF
KPQI 281731Z 2818/2918 23005KT P6SM OVC090
     FM282100 30007KT 3SM -SHRA BR OVC040
     FM282200 32007KT P6SM VCTS BKN040CB
     FM290000 34006KT P6SM BKN045
     FM290300 35005KT P6SM SCT090
      AMD LTD TO CLD VIS AND WIND=

USA.gov is the U.S. government's official web portal to all federal, state and local government web resources and services.